createdAt,value
2022-09-29T00:00:09.000Z,992.7
2022-09-29T00:01:25.000Z,992.7
2022-09-29T00:02:41.000Z,992.8
2022-09-29T00:03:57.000Z,992.7
2022-09-29T00:05:14.000Z,992.7
2022-09-29T00:06:30.000Z,992.7
2022-09-29T00:07:46.000Z,992.7
2022-09-29T00:09:02.000Z,992.7
2022-09-29T00:10:18.000Z,992.7
2022-09-29T00:11:35.000Z,992.8
2022-09-29T00:12:51.000Z,992.7
2022-09-29T00:14:06.640Z,992.8
2022-09-29T00:15:22.000Z,992.8
2022-09-29T00:16:38.000Z,992.7
2022-09-29T00:17:54.000Z,992.8
2022-09-29T00:19:11.000Z,992.8
2022-09-29T00:20:26.000Z,992.7
2022-09-29T00:21:42.000Z,992.8
2022-09-29T00:22:58.000Z,992.7
2022-09-29T00:24:14.000Z,992.7
2022-09-29T00:25:31.000Z,992.8
2022-09-29T00:26:47.000Z,992.7
2022-09-29T00:28:03.000Z,992.7
2022-09-29T00:29:19.000Z,992.8
2022-09-29T00:30:35.000Z,992.7
2022-09-29T00:31:52.000Z,992.7
2022-09-29T00:33:08.000Z,992.8
2022-09-29T00:34:24.000Z,992.8
2022-09-29T00:35:40.000Z,992.7
2022-09-29T00:36:55.000Z,992.8
2022-09-29T00:38:12.000Z,992.8
2022-09-29T00:39:28.000Z,992.7
2022-09-29T00:40:44.000Z,992.7
2022-09-29T00:42:00.000Z,992.7
2022-09-29T00:43:16.000Z,992.7
2022-09-29T00:44:32.000Z,992.7
2022-09-29T00:45:49.000Z,992.7
2022-09-29T00:47:05.000Z,992.7
2022-09-29T00:48:21.000Z,992.7
2022-09-29T00:49:37.000Z,992.8
2022-09-29T00:50:53.000Z,992.8
2022-09-29T00:52:10.000Z,992.7
2022-09-29T00:53:25.000Z,992.7
2022-09-29T00:54:41.000Z,992.7
2022-09-29T00:55:57.000Z,992.7
2022-09-29T00:57:13.000Z,992.7
2022-09-29T00:58:30.000Z,992.7
2022-09-29T00:59:46.000Z,992.7
2022-09-29T01:01:02.000Z,992.7
2022-09-29T01:02:18.000Z,992.7
2022-09-29T01:03:34.000Z,992.7
2022-09-29T01:04:51.000Z,992.7
2022-09-29T01:06:07.000Z,992.6
2022-09-29T01:07:23.000Z,992.7
2022-09-29T01:08:39.000Z,992.7
2022-09-29T01:09:54.000Z,992.7
2022-09-29T01:11:10.000Z,992.7
2022-09-29T01:12:27.000Z,992.7
2022-09-29T01:13:43.000Z,992.7
2022-09-29T01:14:59.000Z,992.7
2022-09-29T01:16:15.000Z,992.7
2022-09-29T01:17:31.000Z,992.7
2022-09-29T01:18:48.000Z,992.6
2022-09-29T01:20:04.000Z,992.6
2022-09-29T01:21:20.000Z,992.7
2022-09-29T01:22:36.000Z,992.6
2022-09-29T01:23:52.000Z,992.7
2022-09-29T01:25:09.000Z,992.6
2022-09-29T01:26:24.000Z,992.6
2022-09-29T01:27:40.000Z,992.6
2022-09-29T01:28:56.000Z,992.6
2022-09-29T01:30:12.000Z,992.6
2022-09-29T01:31:29.000Z,992.6
2022-09-29T01:32:45.000Z,992.6
2022-09-29T01:34:01.000Z,992.6
2022-09-29T01:35:17.000Z,992.6
2022-09-29T01:36:33.000Z,992.6
2022-09-29T01:37:49.000Z,992.6
2022-09-29T01:39:06.000Z,992.7
2022-09-29T01:40:22.000Z,992.6
2022-09-29T01:41:38.000Z,992.7
2022-09-29T01:42:53.000Z,992.7
2022-09-29T01:44:09.000Z,992.7
2022-09-29T01:45:26.000Z,992.8
2022-09-29T01:46:42.000Z,992.8
2022-09-29T01:47:58.000Z,992.8
2022-09-29T01:49:14.000Z,992.8
2022-09-29T01:50:30.000Z,992.8
2022-09-29T01:51:47.000Z,992.8
2022-09-29T01:53:03.000Z,992.8
2022-09-29T01:54:19.000Z,992.8
2022-09-29T01:55:35.000Z,992.8
2022-09-29T01:56:51.000Z,992.8
2022-09-29T01:58:08.000Z,992.8
2022-09-29T01:59:23.000Z,992.9
2022-09-29T02:00:39.000Z,992.8
2022-09-29T02:01:55.000Z,992.8
2022-09-29T02:03:11.000Z,992.9
2022-09-29T02:04:27.000Z,992.8
2022-09-29T02:05:44.000Z,992.8
2022-09-29T02:07:00.000Z,992.8
2022-09-29T02:08:16.000Z,992.8
2022-09-29T02:09:32.000Z,992.8
2022-09-29T02:10:48.000Z,992.8
2022-09-29T02:12:05.000Z,992.8
2022-09-29T02:13:21.000Z,992.8
2022-09-29T02:14:37.000Z,992.8
2022-09-29T02:15:52.000Z,992.8
2022-09-29T02:17:08.000Z,992.7
2022-09-29T02:18:25.000Z,992.8
2022-09-29T02:19:41.000Z,992.8
2022-09-29T02:20:57.000Z,992.8
2022-09-29T02:22:13.000Z,992.8
2022-09-29T02:23:29.000Z,992.8
2022-09-29T02:24:46.000Z,992.8
2022-09-29T02:26:02.000Z,992.8
2022-09-29T02:27:18.000Z,992.8
2022-09-29T02:28:34.000Z,992.9
2022-09-29T02:29:50.000Z,992.9
2022-09-29T02:31:06.000Z,992.9
2022-09-29T02:33:38.000Z,992.9
2022-09-29T02:34:54.000Z,992.9
2022-09-29T02:36:10.000Z,992.9
2022-09-29T02:37:26.000Z,992.9
2022-09-29T02:38:43.000Z,992.9
2022-09-29T02:39:59.000Z,992.9
2022-09-29T02:41:15.707Z,992.9
2022-09-29T02:42:31.000Z,993
2022-09-29T02:43:47.000Z,992.9
2022-09-29T02:45:04.000Z,992.9
2022-09-29T02:46:20.000Z,992.9
2022-09-29T02:47:36.000Z,993
2022-09-29T02:48:51.000Z,992.9
2022-09-29T02:50:07.000Z,992.9
2022-09-29T02:51:24.000Z,993
2022-09-29T02:52:40.000Z,992.9
2022-09-29T02:53:56.000Z,992.9
2022-09-29T02:55:12.000Z,993
2022-09-29T02:56:28.000Z,992.9
2022-09-29T02:57:44.000Z,993
2022-09-29T02:59:01.000Z,993
2022-09-29T03:00:17.000Z,993
2022-09-29T03:01:33.000Z,993
2022-09-29T03:02:49.000Z,993
2022-09-29T03:04:05.000Z,993
2022-09-29T03:05:21.000Z,993
2022-09-29T03:06:37.000Z,993
2022-09-29T03:07:53.000Z,993
2022-09-29T03:09:09.000Z,993
2022-09-29T03:10:25.000Z,993
2022-09-29T03:11:42.000Z,993
2022-09-29T03:12:58.000Z,993
2022-09-29T03:14:14.000Z,993
2022-09-29T03:15:30.000Z,993
2022-09-29T03:16:46.000Z,993
2022-09-29T03:18:03.000Z,993.1
2022-09-29T03:19:19.000Z,993.1
2022-09-29T03:20:35.000Z,993
2022-09-29T03:21:50.000Z,993
2022-09-29T03:23:06.000Z,993.1
2022-09-29T03:24:22.000Z,993
2022-09-29T03:25:39.000Z,993
2022-09-29T03:26:55.000Z,993
2022-09-29T03:28:11.000Z,993
2022-09-29T03:29:27.000Z,993
2022-09-29T03:30:43.000Z,993
2022-09-29T03:32:00.000Z,993
2022-09-29T03:33:16.000Z,993
2022-09-29T03:34:32.000Z,993
2022-09-29T03:35:48.000Z,993
2022-09-29T03:37:04.000Z,993
2022-09-29T03:38:20.000Z,993
2022-09-29T03:39:36.000Z,993
2022-09-29T03:40:52.000Z,993.1
2022-09-29T03:42:08.000Z,993.1
2022-09-29T03:43:24.000Z,993
2022-09-29T03:44:41.000Z,993.1
2022-09-29T03:45:57.000Z,993.1
2022-09-29T03:47:13.000Z,993.1
2022-09-29T03:48:29.000Z,993.1
2022-09-29T03:49:45.000Z,993.1
2022-09-29T03:51:01.000Z,993.1
2022-09-29T03:52:18.000Z,993.1
2022-09-29T03:53:34.000Z,993.1
2022-09-29T03:54:49.000Z,993.1
2022-09-29T03:56:05.000Z,993.1
2022-09-29T03:57:21.000Z,993.1
2022-09-29T03:58:38.000Z,993.1
2022-09-29T03:59:54.000Z,993.1
2022-09-29T04:01:10.000Z,993.1
2022-09-29T04:02:26.000Z,993.1
2022-09-29T04:03:42.000Z,993.1
2022-09-29T04:04:59.000Z,993.1
2022-09-29T04:06:15.000Z,993.1
2022-09-29T04:07:31.000Z,993.1
2022-09-29T04:08:47.000Z,993.2
2022-09-29T04:10:03.000Z,993.2
2022-09-29T04:11:19.000Z,993.2
2022-09-29T04:12:35.000Z,993.3
2022-09-29T04:13:51.000Z,993.2
2022-09-29T04:15:07.000Z,993.2
2022-09-29T04:16:23.000Z,993.2
2022-09-29T04:17:39.000Z,993.3
2022-09-29T04:18:56.000Z,993.3
2022-09-29T04:20:12.000Z,993.3
2022-09-29T04:21:28.000Z,993.3
2022-09-29T04:22:44.000Z,993.4
2022-09-29T04:24:00.000Z,993.3
2022-09-29T04:25:17.000Z,993.3
2022-09-29T04:26:33.000Z,993.3
2022-09-29T04:27:48.000Z,993.3
2022-09-29T04:29:04.000Z,993.4
2022-09-29T04:30:20.000Z,993.4
2022-09-29T04:31:37.000Z,993.4
2022-09-29T04:32:53.000Z,993.4
2022-09-29T04:34:09.000Z,993.5
2022-09-29T04:35:24.000Z,993.4
2022-09-29T04:36:40.000Z,993.4
2022-09-29T04:37:57.000Z,993.5
2022-09-29T04:39:13.000Z,993.5
2022-09-29T04:40:29.000Z,993.5
2022-09-29T04:41:45.000Z,993.4
2022-09-29T04:43:01.000Z,993.5
2022-09-29T04:44:17.000Z,993.5
2022-09-29T04:45:34.000Z,993.5
2022-09-29T04:46:50.000Z,993.4
2022-09-29T04:48:06.000Z,993.5
2022-09-29T04:49:22.000Z,993.5
2022-09-29T04:50:38.000Z,993.5
2022-09-29T04:51:54.000Z,993.5
2022-09-29T04:53:10.000Z,993.5
2022-09-29T04:54:26.000Z,993.5
2022-09-29T04:55:42.000Z,993.5
2022-09-29T04:56:58.000Z,993.5
2022-09-29T04:58:15.000Z,993.5
2022-09-29T04:59:31.000Z,993.6
2022-09-29T05:00:47.000Z,993.5
2022-09-29T05:02:03.000Z,993.5
2022-09-29T05:03:19.000Z,993.5
2022-09-29T05:04:36.000Z,993.6
2022-09-29T05:05:52.000Z,993.5
2022-09-29T05:07:08.000Z,993.6
2022-09-29T05:08:23.000Z,993.6
2022-09-29T05:09:39.000Z,993.6
2022-09-29T05:10:55.000Z,993.6
2022-09-29T05:12:12.000Z,993.6
2022-09-29T05:13:28.000Z,993.6
2022-09-29T05:14:44.000Z,993.6
2022-09-29T05:16:00.000Z,993.7
2022-09-29T05:17:16.000Z,993.7
2022-09-29T05:18:33.000Z,993.7
2022-09-29T05:19:49.000Z,993.7
2022-09-29T05:21:05.000Z,993.7
2022-09-29T05:22:21.000Z,993.7
2022-09-29T05:23:37.000Z,993.7
2022-09-29T05:24:53.000Z,993.7
2022-09-29T05:26:09.000Z,993.7
2022-09-29T05:27:25.000Z,993.7
2022-09-29T05:28:41.000Z,993.7
2022-09-29T05:29:57.000Z,993.7
2022-09-29T05:31:14.000Z,993.7
2022-09-29T05:32:30.000Z,993.7
2022-09-29T05:33:46.000Z,993.7
2022-09-29T05:35:02.000Z,993.7
2022-09-29T05:36:18.000Z,993.7
2022-09-29T05:37:34.000Z,993.7
2022-09-29T05:38:51.000Z,993.7
2022-09-29T05:40:07.000Z,993.7
2022-09-29T05:41:23.000Z,993.7
2022-09-29T05:42:39.000Z,993.8
2022-09-29T05:43:56.000Z,993.8
2022-09-29T05:45:12.000Z,993.8
2022-09-29T05:46:28.000Z,993.8
2022-09-29T05:47:44.000Z,993.8
2022-09-29T05:49:00.000Z,993.9
2022-09-29T05:50:16.000Z,993.8
2022-09-29T05:51:33.000Z,993.9
2022-09-29T05:52:49.000Z,993.8
2022-09-29T05:54:05.000Z,993.8
2022-09-29T05:55:21.000Z,993.8
2022-09-29T05:56:37.000Z,993.8
2022-09-29T05:57:53.000Z,993.8
2022-09-29T05:59:09.000Z,993.9
2022-09-29T06:00:25.000Z,993.8
2022-09-29T06:01:41.000Z,993.9
2022-09-29T06:02:57.000Z,993.8
2022-09-29T06:04:14.000Z,993.8
2022-09-29T06:05:30.000Z,993.9
2022-09-29T06:06:46.000Z,993.9
2022-09-29T06:08:02.000Z,993.9
2022-09-29T06:09:18.000Z,993.9
2022-09-29T06:10:35.000Z,993.9
2022-09-29T06:11:51.432Z,994
2022-09-29T06:13:07.000Z,994
2022-09-29T06:14:22.000Z,994
2022-09-29T06:15:38.000Z,993.9
2022-09-29T06:16:54.000Z,993.9
2022-09-29T06:18:11.000Z,993.9
2022-09-29T06:19:27.000Z,994
2022-09-29T06:20:43.000Z,993.8
2022-09-29T06:21:59.000Z,993.9
2022-09-29T06:23:15.000Z,993.9
2022-09-29T06:24:32.000Z,993.9
2022-09-29T06:25:48.000Z,994
2022-09-29T06:27:04.000Z,994
2022-09-29T06:28:20.000Z,994
2022-09-29T06:29:36.000Z,994
2022-09-29T06:30:52.000Z,994.1
2022-09-29T06:32:08.000Z,993.9
2022-09-29T06:33:24.000Z,993.9
2022-09-29T06:34:40.000Z,994
2022-09-29T06:35:56.000Z,994
2022-09-29T06:37:13.000Z,993.9
2022-09-29T06:38:29.000Z,993.9
2022-09-29T06:39:45.000Z,993.8
2022-09-29T06:41:01.000Z,993.9
2022-09-29T06:42:17.000Z,993.9
2022-09-29T06:43:33.000Z,993.9
2022-09-29T06:44:50.000Z,993.8
2022-09-29T06:46:06.000Z,993.9
2022-09-29T06:47:22.000Z,993.9
2022-09-29T06:48:37.000Z,993.9
2022-09-29T06:49:53.000Z,993.9
2022-09-29T06:51:10.000Z,993.9
2022-09-29T06:52:26.000Z,994
2022-09-29T06:53:42.000Z,994.1
2022-09-29T06:54:58.000Z,994.1
2022-09-29T06:56:14.000Z,994.1
2022-09-29T06:57:31.000Z,994.1
2022-09-29T06:58:47.000Z,994.2
2022-09-29T07:00:03.000Z,994.1
2022-09-29T07:01:19.000Z,994.1
2022-09-29T07:02:35.000Z,994.1
2022-09-29T07:03:51.000Z,994.1
2022-09-29T07:05:07.000Z,994.2
2022-09-29T07:06:23.000Z,994.2
2022-09-29T07:07:39.000Z,994.2
2022-09-29T07:08:55.000Z,994.2
2022-09-29T07:10:11.000Z,994.2
2022-09-29T07:11:28.000Z,994.2
2022-09-29T07:12:44.000Z,994.2
2022-09-29T07:14:00.000Z,994.2
2022-09-29T07:15:16.000Z,994.2
2022-09-29T07:16:32.000Z,994.2
2022-09-29T07:17:49.000Z,994.2
2022-09-29T07:19:05.000Z,994.3
2022-09-29T07:20:21.000Z,994.3
2022-09-29T07:21:36.000Z,994.3
2022-09-29T07:22:52.000Z,994.3
2022-09-29T07:24:09.000Z,994.3
2022-09-29T07:25:25.000Z,994.4
2022-09-29T07:26:41.000Z,994.4
2022-09-29T07:27:57.000Z,994.4
2022-09-29T07:29:13.000Z,994.4
2022-09-29T07:30:29.000Z,994.5
2022-09-29T07:31:46.000Z,994.4
2022-09-29T07:33:02.000Z,994.5
2022-09-29T07:34:18.000Z,994.4
2022-09-29T07:35:34.000Z,994.5
2022-09-29T07:36:50.000Z,994.4
2022-09-29T07:38:06.000Z,994.4
2022-09-29T07:39:22.000Z,994.4
2022-09-29T07:40:38.000Z,994.5
2022-09-29T07:41:54.000Z,994.5
2022-09-29T07:43:10.000Z,994.5
2022-09-29T07:44:27.000Z,994.5
2022-09-29T07:45:43.000Z,994.5
2022-09-29T07:46:59.000Z,994.5
2022-09-29T07:48:15.000Z,994.5
2022-09-29T07:49:31.000Z,994.6
2022-09-29T07:50:47.000Z,994.5
2022-09-29T07:52:04.000Z,994.6
2022-09-29T07:53:20.000Z,994.5
2022-09-29T07:54:35.000Z,994.5
2022-09-29T07:55:51.000Z,994.5
2022-09-29T07:57:07.000Z,994.4
2022-09-29T07:58:24.000Z,994.4
2022-09-29T07:59:40.000Z,994.4
2022-09-29T08:00:56.000Z,994.4
2022-09-29T08:02:12.000Z,994.5
2022-09-29T08:03:28.000Z,994.5
2022-09-29T08:04:45.000Z,994.6
2022-09-29T08:06:01.000Z,994.5
2022-09-29T08:07:17.000Z,994.6
2022-09-29T08:08:33.000Z,994.5
2022-09-29T08:09:49.000Z,994.6
2022-09-29T08:11:05.000Z,994.7
2022-09-29T08:12:21.000Z,994.7
2022-09-29T08:13:37.000Z,994.7
2022-09-29T08:14:53.000Z,994.7
2022-09-29T08:16:09.000Z,994.7
2022-09-29T08:17:25.000Z,994.7
2022-09-29T08:18:42.000Z,994.8
2022-09-29T08:19:58.000Z,994.8
2022-09-29T08:21:14.000Z,994.8
2022-09-29T08:22:30.000Z,994.8
2022-09-29T08:23:46.000Z,994.8
2022-09-29T08:25:03.000Z,994.9
2022-09-29T08:26:19.000Z,994.8
2022-09-29T08:27:34.000Z,994.9
2022-09-29T08:28:50.000Z,994.9
2022-09-29T08:30:06.000Z,994.8
2022-09-29T08:31:23.000Z,994.9
2022-09-29T08:32:39.000Z,994.9
2022-09-29T08:33:55.000Z,994.9
2022-09-29T08:35:11.000Z,994.9
2022-09-29T08:36:27.000Z,994.8
2022-09-29T08:37:43.000Z,994.7
2022-09-29T08:39:00.000Z,994.8
2022-09-29T08:40:16.000Z,994.8
2022-09-29T08:41:32.000Z,994.8
2022-09-29T08:42:48.000Z,994.9
2022-09-29T08:44:03.000Z,994.9
2022-09-29T08:45:20.000Z,994.8
2022-09-29T08:46:36.000Z,994.8
2022-09-29T08:47:52.000Z,994.8
2022-09-29T08:49:08.000Z,994.9
2022-09-29T08:50:23.000Z,994.9
2022-09-29T08:51:40.000Z,994.9
2022-09-29T08:52:56.000Z,995
2022-09-29T08:54:12.000Z,995
2022-09-29T08:55:28.000Z,994.9
2022-09-29T08:56:44.000Z,995
2022-09-29T08:58:00.000Z,995
2022-09-29T08:59:17.000Z,995
2022-09-29T09:00:33.000Z,994.9
2022-09-29T09:01:49.000Z,995
2022-09-29T09:03:05.000Z,995.1
2022-09-29T09:04:21.000Z,995
2022-09-29T09:05:38.000Z,995.1
2022-09-29T09:06:53.000Z,995
2022-09-29T09:08:09.000Z,995
2022-09-29T09:09:25.000Z,995
2022-09-29T09:10:41.000Z,995.1
2022-09-29T09:11:58.000Z,995.1
2022-09-29T09:13:14.000Z,995.1
2022-09-29T09:14:30.000Z,995.1
2022-09-29T09:15:46.000Z,995.1
2022-09-29T09:17:02.000Z,995.1
2022-09-29T09:18:19.000Z,995.1
2022-09-29T09:19:35.000Z,995.1
2022-09-29T09:20:51.000Z,995.2
2022-09-29T09:22:07.000Z,995.1
2022-09-29T09:23:23.000Z,995.1
2022-09-29T09:24:38.000Z,995.1
2022-09-29T09:25:55.000Z,995.1
2022-09-29T09:27:11.000Z,995.1
2022-09-29T09:28:27.000Z,995
2022-09-29T09:29:43.000Z,995
2022-09-29T09:30:59.000Z,995.1
2022-09-29T09:32:16.000Z,995.1
2022-09-29T09:33:32.000Z,995.1
2022-09-29T09:34:48.000Z,995.1
2022-09-29T09:36:04.000Z,995
2022-09-29T09:37:20.000Z,995.1
2022-09-29T09:38:37.000Z,995
2022-09-29T09:39:53.000Z,995
2022-09-29T09:41:08.000Z,995
2022-09-29T09:42:24.000Z,995
2022-09-29T09:43:40.000Z,995
2022-09-29T09:44:56.000Z,995
2022-09-29T09:46:13.000Z,995
2022-09-29T09:47:29.000Z,995
2022-09-29T09:48:45.000Z,995
2022-09-29T09:50:01.000Z,994.9
2022-09-29T09:51:17.000Z,994.9
2022-09-29T09:52:34.000Z,994.9
2022-09-29T09:53:50.000Z,994.9
2022-09-29T09:55:06.000Z,994.9
2022-09-29T09:56:22.000Z,994.9
2022-09-29T09:57:37.000Z,994.8
2022-09-29T09:58:54.000Z,994.8
2022-09-29T10:00:10.000Z,994.8
2022-09-29T10:01:26.000Z,994.8
2022-09-29T10:02:42.000Z,994.8
2022-09-29T10:03:58.000Z,994.8
2022-09-29T10:05:14.000Z,994.7
2022-09-29T10:06:31.000Z,994.7
2022-09-29T10:07:47.000Z,994.7
2022-09-29T10:09:03.000Z,994.7
2022-09-29T10:10:19.000Z,994.7
2022-09-29T10:11:35.000Z,994.7
2022-09-29T10:12:52.000Z,994.7
2022-09-29T10:14:07.000Z,994.7
2022-09-29T10:15:23.000Z,994.7
2022-09-29T10:16:39.000Z,994.7
2022-09-29T10:17:55.000Z,994.7
2022-09-29T10:19:12.000Z,994.7
2022-09-29T10:20:28.000Z,994.8
2022-09-29T10:21:44.426Z,994.7
2022-09-29T10:23:00.000Z,994.7
2022-09-29T10:24:16.000Z,994.6
2022-09-29T10:25:32.000Z,994.7
2022-09-29T10:26:49.000Z,994.7
2022-09-29T10:28:05.000Z,994.5
2022-09-29T10:29:21.000Z,994.6
2022-09-29T10:30:36.000Z,994.6
2022-09-29T10:31:52.000Z,994.6
2022-09-29T10:33:09.000Z,994.5
2022-09-29T10:34:25.000Z,994.6
2022-09-29T10:35:41.000Z,994.5
2022-09-29T10:36:57.000Z,994.6
2022-09-29T10:38:13.000Z,994.6
2022-09-29T10:39:30.000Z,994.5
2022-09-29T10:40:46.000Z,994.6
2022-09-29T10:42:02.000Z,994.5
2022-09-29T10:43:18.000Z,994.5
2022-09-29T10:44:34.000Z,994.5
2022-09-29T10:45:51.000Z,994.5
2022-09-29T10:47:06.000Z,994.5
2022-09-29T10:48:22.000Z,994.4
2022-09-29T10:49:38.000Z,994.6
2022-09-29T10:50:54.000Z,994.5
2022-09-29T10:52:10.000Z,994.5
2022-09-29T10:53:27.000Z,994.5
2022-09-29T10:54:43.000Z,994.7
2022-09-29T10:55:59.000Z,994.7
2022-09-29T10:57:15.000Z,994.7
2022-09-29T10:58:31.000Z,994.8
2022-09-29T10:59:48.000Z,994.9
2022-09-29T11:01:04.000Z,994.9
2022-09-29T11:03:36.000Z,994.9
2022-09-29T11:04:51.000Z,994.8
2022-09-29T11:06:08.000Z,994.8
2022-09-29T11:07:24.000Z,994.7
2022-09-29T11:08:40.000Z,994.8
2022-09-29T11:09:56.000Z,994.7
2022-09-29T11:11:12.000Z,994.7
2022-09-29T11:12:28.000Z,994.7
2022-09-29T11:13:45.000Z,994.7
2022-09-29T11:15:01.000Z,994.7
2022-09-29T11:16:17.000Z,994.8
2022-09-29T11:17:33.000Z,994.7
2022-09-29T11:18:49.000Z,994.8
2022-09-29T11:20:06.000Z,994.8
2022-09-29T11:21:21.000Z,994.8
2022-09-29T11:22:37.000Z,994.8
2022-09-29T11:23:53.000Z,994.9
2022-09-29T11:25:09.000Z,994.9
2022-09-29T11:26:26.000Z,994.9
2022-09-29T11:27:42.000Z,994.9
2022-09-29T11:28:58.000Z,995
2022-09-29T11:30:14.000Z,994.9
2022-09-29T11:31:30.000Z,994.9
2022-09-29T11:32:46.000Z,994.9
2022-09-29T11:34:03.000Z,995
2022-09-29T11:35:19.000Z,995
2022-09-29T11:36:35.000Z,995
2022-09-29T11:37:50.000Z,995
2022-09-29T11:39:06.000Z,994.9
2022-09-29T11:40:23.000Z,994.9
2022-09-29T11:41:39.000Z,995
2022-09-29T11:42:55.000Z,995
2022-09-29T11:44:11.000Z,994.9
2022-09-29T11:45:27.000Z,994.9
2022-09-29T11:46:44.000Z,995
2022-09-29T11:48:00.000Z,994.9
2022-09-29T11:49:16.000Z,994.9
2022-09-29T11:50:32.000Z,995
2022-09-29T11:51:48.000Z,995
2022-09-29T11:53:04.000Z,995
2022-09-29T11:54:20.000Z,995
2022-09-29T11:55:36.000Z,995.1
2022-09-29T11:56:52.000Z,995
2022-09-29T11:58:08.000Z,995.1
2022-09-29T11:59:24.000Z,995
2022-09-29T12:00:41.000Z,995
2022-09-29T12:01:57.000Z,994.9
2022-09-29T12:03:13.000Z,994.9
2022-09-29T12:04:29.000Z,995
2022-09-29T12:05:45.000Z,995
2022-09-29T12:07:02.000Z,995
2022-09-29T12:08:18.000Z,994.9
2022-09-29T12:09:34.000Z,995
2022-09-29T12:10:49.000Z,994.9
2022-09-29T12:12:05.000Z,995
2022-09-29T12:13:22.000Z,995
2022-09-29T12:14:38.000Z,995
2022-09-29T12:15:54.000Z,995
2022-09-29T12:17:10.000Z,995
2022-09-29T12:18:26.000Z,995
2022-09-29T12:19:42.000Z,995
2022-09-29T12:20:59.000Z,994.9
2022-09-29T12:22:15.000Z,994.9
2022-09-29T12:23:31.000Z,994.9
2022-09-29T12:24:47.000Z,994.9
2022-09-29T12:26:03.000Z,994.9
2022-09-29T12:27:19.000Z,994.8
2022-09-29T12:28:35.000Z,994.9
2022-09-29T12:29:51.000Z,994.8
2022-09-29T12:31:07.000Z,994.8
2022-09-29T12:32:23.000Z,994.8
2022-09-29T12:33:40.000Z,994.7
2022-09-29T12:34:56.000Z,994.9
2022-09-29T12:36:12.000Z,994.9
2022-09-29T12:37:28.000Z,995
2022-09-29T12:38:44.000Z,995
2022-09-29T12:40:00.000Z,995
2022-09-29T12:41:17.000Z,995.1
2022-09-29T12:42:33.000Z,995.1
2022-09-29T12:43:48.000Z,995.1
2022-09-29T12:45:04.000Z,995.1
2022-09-29T12:46:20.000Z,995.1
2022-09-29T12:47:37.000Z,995.1
2022-09-29T12:48:53.000Z,995.1
2022-09-29T12:50:09.000Z,995
2022-09-29T12:51:25.000Z,995.1
2022-09-29T12:52:41.000Z,995.2
2022-09-29T12:53:58.000Z,995.2
2022-09-29T12:55:14.000Z,995.1
2022-09-29T12:56:30.000Z,995.1
2022-09-29T12:57:46.000Z,995
2022-09-29T12:59:02.000Z,995.1
2022-09-29T13:00:17.000Z,995
2022-09-29T13:01:34.000Z,994.9
2022-09-29T13:02:50.000Z,994.9
2022-09-29T13:04:06.000Z,995
2022-09-29T13:05:21.000Z,995
2022-09-29T13:06:37.000Z,995.1
2022-09-29T13:07:54.000Z,995
2022-09-29T13:09:10.000Z,995
2022-09-29T13:10:26.000Z,995
2022-09-29T13:11:42.000Z,995
2022-09-29T13:12:58.000Z,995
2022-09-29T13:14:15.000Z,994.9
2022-09-29T13:15:31.000Z,994.9
2022-09-29T13:16:47.000Z,994.9
2022-09-29T13:18:03.000Z,995
2022-09-29T13:19:19.000Z,995
2022-09-29T13:20:36.000Z,994.9
2022-09-29T13:21:51.000Z,995
2022-09-29T13:23:07.000Z,995
2022-09-29T13:24:23.000Z,995
2022-09-29T13:25:39.000Z,995.1
2022-09-29T13:26:55.000Z,995
2022-09-29T13:28:12.000Z,995
2022-09-29T13:29:28.000Z,995
2022-09-29T13:30:44.000Z,995
2022-09-29T13:32:00.000Z,994.9
2022-09-29T13:33:16.000Z,995
2022-09-29T13:34:33.000Z,994.9
2022-09-29T13:35:49.000Z,995
2022-09-29T13:37:05.000Z,994.9
2022-09-29T13:38:20.000Z,994.9
2022-09-29T13:39:36.000Z,994.9
2022-09-29T13:40:53.000Z,994.9
2022-09-29T13:42:09.000Z,994.9
2022-09-29T13:43:25.000Z,994.9
2022-09-29T13:44:41.000Z,994.9
2022-09-29T13:45:57.000Z,994.9
2022-09-29T13:47:13.000Z,994.9
2022-09-29T13:48:30.000Z,994.9
2022-09-29T13:49:46.000Z,994.9
2022-09-29T13:51:02.756Z,995
2022-09-29T13:52:18.000Z,994.9
2022-09-29T13:53:34.000Z,994.9
2022-09-29T13:54:50.000Z,994.9
2022-09-29T13:56:06.000Z,994.9
2022-09-29T13:57:22.000Z,995
2022-09-29T13:58:38.000Z,994.9
2022-09-29T13:59:54.000Z,994.9
2022-09-29T14:01:11.000Z,994.8
2022-09-29T14:02:27.000Z,994.9
2022-09-29T14:03:43.000Z,995
2022-09-29T14:04:59.000Z,995
2022-09-29T14:06:15.000Z,994.9
2022-09-29T14:07:31.000Z,995
2022-09-29T14:08:48.000Z,994.9
2022-09-29T14:10:04.000Z,995
2022-09-29T14:11:19.000Z,994.9
2022-09-29T14:12:35.000Z,995
2022-09-29T14:13:51.000Z,995
2022-09-29T14:15:08.000Z,995
2022-09-29T14:16:24.000Z,995
2022-09-29T14:17:40.000Z,995.1
2022-09-29T14:18:56.000Z,995
2022-09-29T14:20:12.000Z,995
2022-09-29T14:21:29.000Z,995
2022-09-29T14:22:45.000Z,995
2022-09-29T14:24:01.000Z,995.1
2022-09-29T14:25:17.000Z,995.1
2022-09-29T14:26:33.000Z,995.2
2022-09-29T14:27:49.000Z,995.1
2022-09-29T14:29:05.000Z,995.1
2022-09-29T14:30:21.000Z,995.1
2022-09-29T14:31:37.000Z,995
2022-09-29T14:32:53.000Z,995.1
2022-09-29T14:34:09.000Z,995.1
2022-09-29T14:35:26.000Z,995.1
2022-09-29T14:36:42.000Z,995.2
2022-09-29T14:37:58.000Z,995.1
2022-09-29T14:39:14.000Z,995.2
2022-09-29T14:40:30.000Z,995.3
2022-09-29T14:41:47.000Z,995.2
2022-09-29T14:43:03.000Z,995.3
2022-09-29T14:44:18.000Z,995.3
2022-09-29T14:45:34.000Z,995.4
2022-09-29T14:46:50.000Z,995.3
2022-09-29T14:48:07.000Z,995.3
2022-09-29T14:49:23.435Z,995.4
2022-09-29T14:50:39.000Z,995.5
2022-09-29T14:51:55.000Z,995.5
2022-09-29T14:53:11.000Z,995.6
2022-09-29T14:54:27.000Z,995.5
2022-09-29T14:55:44.000Z,995.5
2022-09-29T14:57:00.000Z,995.5
2022-09-29T14:58:16.000Z,995.4
2022-09-29T14:59:32.000Z,995.4
2022-09-29T15:00:47.000Z,995.4
2022-09-29T15:02:04.000Z,995.4
2022-09-29T15:03:20.000Z,995.4
2022-09-29T15:04:36.000Z,995.5
2022-09-29T15:05:52.000Z,995.5
2022-09-29T15:07:08.000Z,995.5
2022-09-29T15:08:25.000Z,995.5
2022-09-29T15:09:41.000Z,995.6
2022-09-29T15:10:57.000Z,995.6
2022-09-29T15:12:13.000Z,995.6
2022-09-29T15:13:29.000Z,995.6
2022-09-29T15:14:45.000Z,995.6
2022-09-29T15:16:02.000Z,995.6
2022-09-29T15:17:17.000Z,995.7
2022-09-29T15:18:33.000Z,995.6
2022-09-29T15:19:49.000Z,995.6
2022-09-29T15:21:05.000Z,995.6
2022-09-29T15:22:22.000Z,995.6
2022-09-29T15:23:38.000Z,995.7
2022-09-29T15:24:54.000Z,995.6
2022-09-29T15:26:10.000Z,995.6
2022-09-29T15:27:26.000Z,995.6
2022-09-29T15:28:43.000Z,995.6
2022-09-29T15:29:59.000Z,995.6
2022-09-29T15:31:15.000Z,995.6
2022-09-29T15:32:31.000Z,995.6
2022-09-29T15:33:46.000Z,995.6
2022-09-29T15:35:02.000Z,995.6
2022-09-29T15:36:19.000Z,995.5
2022-09-29T15:37:35.000Z,995.6
2022-09-29T15:38:51.000Z,995.5
2022-09-29T15:40:07.000Z,995.7
2022-09-29T15:41:23.000Z,995.6
2022-09-29T15:42:40.000Z,995.7
2022-09-29T15:43:56.000Z,995.6
2022-09-29T15:45:12.000Z,995.6
2022-09-29T15:46:28.000Z,995.6
2022-09-29T15:47:44.000Z,995.7
2022-09-29T15:49:01.000Z,995.7
2022-09-29T15:50:16.000Z,995.7
2022-09-29T15:51:32.000Z,995.7
2022-09-29T15:52:48.000Z,995.8
2022-09-29T15:54:04.000Z,995.8
2022-09-29T15:55:21.000Z,995.8
2022-09-29T15:56:37.000Z,995.8
2022-09-29T15:57:53.000Z,995.8
2022-09-29T15:59:09.000Z,995.9
2022-09-29T16:00:25.000Z,995.8
2022-09-29T16:01:41.000Z,995.8
2022-09-29T16:02:58.000Z,995.9
2022-09-29T16:04:14.000Z,995.9
2022-09-29T16:05:30.000Z,996
2022-09-29T16:06:46.000Z,995.9
2022-09-29T16:08:01.000Z,996
2022-09-29T16:09:18.000Z,996
2022-09-29T16:10:34.000Z,996
2022-09-29T16:11:50.000Z,996
2022-09-29T16:13:06.000Z,996
2022-09-29T16:14:22.000Z,996
2022-09-29T16:15:39.000Z,996.1
2022-09-29T16:16:55.000Z,996.1
2022-09-29T16:18:11.000Z,996.1
2022-09-29T16:19:27.000Z,996.1
2022-09-29T16:20:43.000Z,996.2
2022-09-29T16:21:59.000Z,996.2
2022-09-29T16:23:16.000Z,996.1
2022-09-29T16:24:31.000Z,996.2
2022-09-29T16:25:47.000Z,996.2
2022-09-29T16:27:03.000Z,996.2
2022-09-29T16:28:19.000Z,996.2
2022-09-29T16:29:36.000Z,996.2
2022-09-29T16:30:52.000Z,996.3
2022-09-29T16:32:08.000Z,996.3
2022-09-29T16:33:24.000Z,996.2